Time;durP1;ratioP1;P1;durP2;ratioP2;P2;SDS_P1;SDS_P2;PMS_P1;PMS_P2;Temp;Humidity;BMP_temperature;BMP_pressure;BME280_temperature;BME280_humidity;BME280_pressure;Samples;Min_cycle;Max_cycle;Signal;HPM_P1;HPM_P2
2022/06/10 00:01:38;;;;;;;;;1.67;1.67;;;;;21.08;49.46;101795.38;5057696;28;45515;-82
2022/06/10 00:04:03;;;;;;;;;3.33;2.00;;;;;21.23;49.42;101822.34;5058312;28;45379;-83
2022/06/10 00:06:29;;;;;;;;;1.67;1.67;;;;;21.03;49.96;101788.56;5057618;28;46899;-82
2022/06/10 00:08:54;;;;;;;;;2.00;2.00;;;;;21.12;50.23;101800.56;5057266;28;45390;-82
2022/06/10 00:11:20;;;;;;;;;1.00;1.00;;;;;21.10;50.33;101802.53;5057966;28;45371;-82
2022/06/10 00:13:47;;;;;;;;;2.00;2.00;;;;;21.16;50.10;101811.06;5057943;28;45545;-82
2022/06/10 00:16:14;;;;;;;;;2.00;2.00;;;;;21.11;49.91;101796.13;5054201;28;47010;-83
2022/06/10 00:18:40;;;;;;;;;1.00;1.00;;;;;21.20;50.43;101818.03;5056502;28;45536;-83
2022/06/10 00:21:09;;;;;;;;;1.00;1.00;;;;;21.20;49.93;101815.31;5057870;28;45452;-83
2022/06/10 00:23:34;;;;;;;;;2.67;2.67;;;;;21.17;50.06;101801.13;5057604;28;45617;-82
2022/06/10 00:25:59;;;;;;;;;1.33;1.33;;;;;21.10;49.68;101791.69;5056938;28;48444;-83
2022/06/10 00:28:25;;;;;;;;;2.00;2.00;;;;;21.22;49.83;101818.78;5057661;28;45345;-82
2022/06/10 00:30:50;;;;;;;;;3.00;2.00;;;;;21.14;49.89;101804.91;5057612;28;45351;-83
2022/06/10 00:33:16;;;;;;;;;3.00;3.00;;;;;21.19;49.98;101813.59;5057439;28;45485;-83
2022/06/10 00:35:42;;;;;;;;;2.00;2.00;;;;;21.04;50.24;101790.28;5056509;28;47005;-82
2022/06/10 00:38:08;;;;;;;;;1.67;1.67;;;;;21.17;50.11;101815.53;5057559;28;46194;-83
2022/06/10 00:40:43;;;;;;;;;1.67;1.67;;;;;21.16;50.10;101811.06;5057262;28;45441;-84
2022/06/10 00:43:15;;;;;;;;;1.00;1.00;;;;;21.14;50.03;101810.34;5058276;28;45713;-83
2022/06/10 00:46:13;;;;;;;;;3.00;3.00;;;;;21.13;50.15;101813.16;5056828;28;45402;-82
2022/06/10 00:48:53;;;;;;;;;3.67;2.67;;;;;21.07;49.85;101799.06;5056785;28;45701;-84
2022/06/10 00:51:31;;;;;;;;;1.67;1.00;;;;;21.16;49.71;101807.50;5057344;28;45392;-82
2022/06/10 00:54:07;;;;;;;;;2.00;2.00;;;;;20.92;50.31;101767.63;5057553;28;45454;-83
2022/06/10 00:56:32;;;;;;;;;3.00;2.00;;;;;21.16;50.01;101804.78;5056322;28;46087;-81
2022/06/10 00:59:03;;;;;;;;;3.00;3.00;;;;;21.17;49.81;101801.97;5057071;28;45330;-82
2022/06/10 01:01:32;;;;;;;;;1.00;1.00;;;;;21.15;49.52;101800.34;5056914;28;45528;-82
2022/06/10 01:03:59;;;;;;;;;4.00;1.00;;;;;21.00;49.65;101770.66;5057799;28;45324;-82
2022/06/10 01:06:24;;;;;;;;;3.33;2.67;;;;;20.99;49.88;101766.19;5054352;28;45594;-82
2022/06/10 01:08:51;;;;;;;;;1.67;1.67;;;;;21.14;49.63;101799.50;5056339;28;45557;-83
2022/06/10 01:11:27;;;;;;;;;2.00;2.00;;;;;21.14;49.76;101796.78;5057315;28;45427;-82
2022/06/10 01:14:11;;;;;;;;;1.33;1.33;;;;;21.15;49.76;101797.66;5042394;28;45369;-83
2022/06/10 01:16:47;;;;;;;;;1.00;1.00;;;;;21.14;49.13;101796.78;5055715;28;47282;-81
2022/06/10 01:19:24;;;;;;;;;2.00;2.00;;;;;21.13;49.30;101791.47;5053135;28;45400;-82
2022/06/10 01:22:08;;;;;;;;;2.00;2.00;;;;;21.12;49.05;101797.84;5056430;28;45563;-83
2022/06/10 01:24:33;;;;;;;;;1.00;1.00;;;;;21.13;49.16;101802.31;5056858;28;45503;-82
2022/06/10 01:30:18;;;;;;;;;3.00;1.00;;;;;21.09;49.65;101793.50;5056581;28;45752;-83
2022/06/10 01:33:01;;;;;;;;;1.00;1.00;;;;;21.03;49.11;101780.41;5056531;28;45447;-82
2022/06/10 01:35:44;;;;;;;;;1.33;1.33;;;;;21.08;49.11;101779.09;5057019;28;46942;-82
2022/06/10 01:38:20;;;;;;;;;2.00;2.00;;;;;21.12;48.99;101797.84;5055948;28;45434;-82
2022/06/10 01:41:23;;;;;;;;;1.67;1.33;;;;;21.11;49.46;101794.28;5040613;28;45559;-82
2022/06/10 01:44:10;;;;;;;;;3.33;2.00;;;;;21.11;49.36;101791.56;5040816;28;45504;-83
2022/06/10 01:46:39;;;;;;;;;3.67;1.67;;;;;21.01;48.93;101785.94;5056471;28;45613;-82
2022/06/10 01:49:29;;;;;;;;;2.00;2.00;;;;;21.09;49.07;101796.22;5056678;28;46880;-83
2022/06/10 01:52:04;;;;;;;;;1.67;1.67;;;;;21.06;49.01;101793.75;5056505;28;45573;-82
2022/06/10 01:55:08;;;;;;;;;2.33;1.67;;;;;21.05;49.51;101792.03;5056494;28;45612;-83
2022/06/10 01:57:46;;;;;;;;;5.00;2.67;;;;;21.03;49.69;101794.84;5054177;28;45398;-82
2022/06/10 02:00:23;;;;;;;;;3.00;1.00;;;;;21.00;50.09;101788.75;5055733;28;46663;-82
2022/06/10 02:03:11;;;;;;;;;3.00;2.00;;;;;21.04;49.94;101801.09;5055444;28;45601;-82
2022/06/10 02:05:44;;;;;;;;;2.67;2.67;;;;;20.93;49.40;101782.03;5053173;28;45518;-82
2022/06/10 02:08:14;;;;;;;;;1.00;1.00;;;;;21.04;50.02;101798.41;5053713;28;45849;-82
2022/06/10 02:10:55;;;;;;;;;1.00;1.00;;;;;21.03;49.40;101800.25;5052820;28;46976;-83
2022/06/10 02:13:32;;;;;;;;;2.67;1.00;;;;;20.95;49.51;101788.22;5050210;28;45584;-82
2022/06/10 02:16:00;;;;;;;;;1.33;1.33;;;;;20.95;49.65;101802.63;5052381;28;45500;-83
2022/06/10 02:18:47;;;;;;;;;3.67;2.00;;;;;20.98;49.16;101798.84;5053556;28;45469;-83
2022/06/10 02:21:22;;;;;;;;;2.33;1.33;;;;;20.97;49.63;101802.53;5049642;28;45497;-82
2022/06/10 02:23:56;;;;;;;;;3.00;1.67;;;;;20.92;49.05;101796.56;5053361;28;45327;-82
2022/06/10 02:26:23;;;;;;;;;2.33;1.33;;;;;20.95;49.38;101797.19;5053824;28;45414;-83
2022/06/10 02:28:53;;;;;;;;;2.00;1.67;;;;;20.81;49.10;101775.63;5035557;28;45401;-82
2022/06/10 02:31:25;;;;;;;;;2.00;2.00;;;;;20.89;49.53;101797.66;5037741;28;46356;-83
2022/06/10 02:33:51;;;;;;;;;3.00;1.00;;;;;20.82;49.47;101786.38;5040147;28;45522;-82
2022/06/10 02:36:19;;;;;;;;;2.00;2.00;;;;;20.86;49.37;101814.09;5049998;28;45789;-83
2022/06/10 02:39:08;;;;;;;;;1.00;1.00;;;;;20.84;49.71;101811.53;5052903;28;45591;-82
2022/06/10 02:42:06;;;;;;;;;3.00;1.67;;;;;20.79;49.36;101804.69;5050713;28;47181;-82
2022/06/10 02:44:52;;;;;;;;;2.00;2.00;;;;;20.81;49.53;101814.47;5045606;28;45505;-82
2022/06/10 02:47:29;;;;;;;;;1.00;1.00;;;;;20.64;49.42;101784.94;5050717;28;45414;-82
2022/06/10 02:49:56;;;;;;;;;3.00;3.00;;;;;20.78;49.47;101811.94;5050280;28;45490;-82
2022/06/10 02:52:27;;;;;;;;;1.33;1.00;;;;;20.77;49.99;101812.06;5055345;28;45588;-82
2022/06/10 02:54:52;;;;;;;;;3.67;2.00;;;;;20.66;49.55;101796.56;5055235;28;45528;-82
2022/06/10 03:01:11;;;;;;;;;1.00;1.00;;;;;20.65;49.62;101792.13;5056931;28;45727;-83
2022/06/10 03:03:09;;;;;;;;;5.00;2.00;;;;;20.61;49.89;101804.13;5058587;28;45774;-82
2022/06/10 03:05:54;;;;;;;;;3.33;1.67;;;;;20.54;50.23;101789.25;5058483;28;45450;-82
2022/06/10 03:08:32;;;;;;;;;1.67;1.67;;;;;20.48;50.51;101787.81;5058743;28;45465;-83
2022/06/10 03:11:34;;;;;;;;;4.00;3.00;;;;;20.52;50.77;101802.88;5058589;28;45608;-82
2022/06/10 03:14:33;;;;;;;;;1.67;1.33;;;;;20.42;50.00;101799.94;5044747;28;46627;-82
2022/06/10 03:17:17;;;;;;;;;3.00;1.00;;;;;20.38;50.38;101793.00;5044652;28;45323;-82
2022/06/10 03:20:06;;;;;;;;;1.67;1.67;;;;;20.52;50.36;101821.00;5058178;28;45519;-82
2022/06/10 03:22:40;;;;;;;;;2.00;2.00;;;;;20.52;50.68;101835.38;5057437;28;45408;-82
2022/06/10 03:25:21;;;;;;;;;3.00;2.00;;;;;20.39;50.69;101821.84;5059055;28;46373;-82
2022/06/10 03:28:18;;;;;;;;;2.67;1.00;;;;;20.49;51.38;101834.75;5057009;28;45463;-82
2022/06/10 03:30:53;;;;;;;;;3.33;2.33;;;;;20.44;51.58;101826.94;5058555;28;45334;-82
2022/06/10 03:33:28;;;;;;;;;1.00;1.00;;;;;20.37;51.34;101826.47;5058851;28;45386;-83
2022/06/10 03:36:10;;;;;;;;;2.00;2.00;;;;;20.38;51.48;101828.19;5058043;28;46439;-82
2022/06/10 03:38:40;;;;;;;;;2.00;2.00;;;;;20.36;51.44;101829.28;5058196;28;45513;-82
2022/06/10 03:41:06;;;;;;;;;5.00;3.00;;;;;20.39;51.38;101832.66;5057748;28;45454;-83
2022/06/10 03:43:38;;;;;;;;;3.67;2.00;;;;;20.36;51.96;101838.25;5058374;28;45402;-82
2022/06/10 03:46:10;;;;;;;;;3.00;2.00;;;;;20.33;52.35;101833.06;5059082;28;45547;-82
2022/06/10 03:48:40;;;;;;;;;2.00;2.00;;;;;20.19;51.69;101814.19;5057993;28;45405;-82
2022/06/10 03:51:08;;;;;;;;;1.00;1.00;;;;;20.23;52.13;101826.56;5058047;28;45477;-83
2022/06/10 03:53:34;;;;;;;;;2.00;2.00;;;;;20.27;51.90;101828.06;5058179;28;45462;-82
2022/06/10 03:55:59;;;;;;;;;2.00;2.00;;;;;20.27;52.53;101836.19;5057884;28;45347;-82
2022/06/10 03:58:25;;;;;;;;;6.67;3.00;;;;;20.12;52.70;101815.56;5058166;28;45462;-83
2022/06/10 04:00:50;;;;;;;;;1.00;1.00;;;;;20.23;52.46;101835.53;5058563;28;45532;-82
2022/06/10 04:03:16;;;;;;;;;3.67;1.67;;;;;20.17;53.02;101830.50;5058081;28;45558;-82
2022/06/10 04:05:41;;;;;;;;;1.00;1.00;;;;;20.21;53.00;101834.75;5057792;28;46492;-83
2022/06/10 04:08:07;;;;;;;;;1.33;1.33;;;;;20.20;52.64;101841.13;5056455;28;45324;-83
2022/06/10 04:10:33;;;;;;;;;3.00;2.33;;;;;20.18;53.09;101840.38;5056972;28;45802;-83
2022/06/10 04:12:58;;;;;;;;;1.00;1.00;;;;;20.08;52.97;101828.41;5057242;28;45308;-82
2022/06/10 04:15:26;;;;;;;;;3.33;1.00;;;;;20.15;52.72;101842.41;5057704;28;45628;-82
2022/06/10 04:17:52;;;;;;;;;4.00;1.00;;;;;20.17;52.81;101854.00;5057333;28;45584;-83
2022/06/10 04:20:22;;;;;;;;;4.67;2.00;;;;;19.91;52.89;101815.16;5053516;28;45444;-82
2022/06/10 04:22:47;;;;;;;;;3.00;1.67;;;;;20.03;53.33;101838.69;5057629;28;45431;-82
2022/06/10 04:25:13;;;;;;;;;2.00;2.00;;;;;19.82;53.64;101803.09;5052418;28;45797;-84
2022/06/10 04:27:39;;;;;;;;;1.00;1.00;;;;;20.10;53.26;101852.69;5053945;28;45312;-82
2022/06/10 04:30:07;;;;;;;;;2.33;2.00;;;;;20.09;54.16;101850.94;5045369;28;46448;-81
2022/06/10 04:32:32;;;;;;;;;2.00;1.00;;;;;20.07;53.75;101855.59;5053260;28;45589;-81
2022/06/10 04:34:57;;;;;;;;;4.00;4.00;;;;;20.10;54.22;101861.66;5056720;28;46338;-80
2022/06/10 04:37:23;;;;;;;;;1.00;1.00;;;;;20.10;54.12;101863.53;5039129;28;45323;-83
2022/06/10 04:39:49;;;;;;;;;130.75;108.00;;;;;20.09;54.36;101861.75;5047922;28;45520;-83
2022/06/10 04:42:14;;;;;;;;;58.00;45.00;;;;;20.10;54.08;101866.22;5044255;28;45462;-83
2022/06/10 04:44:40;;;;;;;;;2.67;1.67;;;;;20.09;54.12;101865.38;5044832;28;46994;-83
2022/06/10 04:47:07;;;;;;;;;4.00;4.00;;;;;20.00;53.96;101856.00;5047627;28;45687;-83
2022/06/10 04:49:32;;;;;;;;;6.33;3.33;;;;;20.06;54.58;101854.72;5054933;28;45518;-81
2022/06/10 04:51:58;;;;;;;;;3.67;3.00;;;;;19.97;54.45;101841.78;5057140;28;45556;-82
2022/06/10 04:54:23;;;;;;;;;2.00;2.00;;;;;20.11;54.80;101863.44;5047244;28;46915;-82
2022/06/10 04:56:49;;;;;;;;;5.00;2.00;;;;;19.98;54.78;101841.69;5052582;28;46161;-83
2022/06/10 04:59:14;;;;;;;;;3.33;3.33;;;;;20.12;54.75;101865.16;5043891;28;45459;-82
2022/06/10 05:01:39;;;;;;;;;2.00;1.67;;;;;20.08;54.74;101858.19;5056199;28;45828;-83
2022/06/10 05:04:05;;;;;;;;;2.67;1.00;;;;;19.87;54.98;101825.28;5056904;28;47099;-82
2022/06/10 05:06:30;;;;;;;;;2.00;2.00;;;;;20.13;55.00;101866.00;5046366;28;45446;-83
2022/06/10 05:08:56;;;;;;;;;4.00;1.00;;;;;20.13;54.97;101871.44;5050344;28;45594;-82
2022/06/10 05:11:22;;;;;;;;;1.67;1.67;;;;;20.12;54.47;101864.28;5046440;28;45473;-82
2022/06/10 05:13:47;;;;;;;;;1.33;1.33;;;;;20.06;54.54;101860.13;5053386;28;46142;-82
2022/06/10 05:16:14;;;;;;;;;1.67;1.33;;;;;19.97;54.30;101839.09;5048785;28;45681;-83
2022/06/10 05:18:39;;;;;;;;;9.33;6.00;;;;;20.09;54.98;101856.34;5053265;28;45610;-83
2022/06/10 05:21:04;;;;;;;;;2.67;1.00;;;;;20.06;54.71;101849.31;5051500;28;45502;-82
2022/06/10 05:23:30;;;;;;;;;1.00;1.00;;;;;20.16;55.30;101877.53;5051911;28;45910;-82
2022/06/10 05:25:55;;;;;;;;;4.00;3.00;;;;;20.16;54.98;101868.53;5049894;28;45516;-86
2022/06/10 05:28:21;;;;;;;;;1.00;1.00;;;;;20.09;55.13;101865.38;5046897;28;45350;-85
2022/06/10 05:30:47;;;;;;;;;3.00;2.00;;;;;20.17;55.32;101875.66;5051934;28;45619;-86
2022/06/10 05:33:13;;;;;;;;;3.00;1.00;;;;;20.20;54.97;101875.47;5049648;28;45576;-88
2022/06/10 05:35:40;;;;;;;;;1.00;1.00;;;;;20.18;55.55;101872.88;5048110;28;45435;-86
2022/06/10 05:38:06;;;;;;;;;1.00;1.00;;;;;20.19;55.54;101876.44;5048036;28;45386;-86
2022/06/10 05:40:33;;;;;;;;;1.00;1.00;;;;;20.19;55.18;101869.19;5048205;28;45582;-87
2022/06/10 05:42:59;;;;;;;;;0.67;0.67;;;;;20.24;55.02;101871.59;5042203;28;46137;-88
2022/06/10 05:45:25;;;;;;;;;1.33;1.33;;;;;20.24;54.72;101880.56;5047227;28;45696;-87
2022/06/10 05:47:55;;;;;;;;;2.33;2.33;;;;;20.25;55.19;101881.44;5047678;28;45728;-91
2022/06/10 05:50:35;;;;;;;;;3.00;2.00;;;;;20.25;54.83;101886.84;5045508;28;45529;-89
2022/06/10 05:53:01;;;;;;;;;3.67;2.67;;;;;20.13;55.46;101866.88;5055462;28;45429;-85
2022/06/10 05:55:29;;;;;;;;;1.33;1.33;;;;;20.27;55.27;101887.63;5054646;28;45730;-86
2022/06/10 05:57:54;;;;;;;;;3.33;1.00;;;;;20.20;55.53;101880.88;5055958;28;45407;-86
2022/06/10 06:00:24;;;;;;;;;2.00;2.00;;;;;20.12;55.54;101864.28;5056892;28;45759;-92
2022/06/10 06:02:49;;;;;;;;;2.00;2.00;;;;;20.24;56.16;101890.53;5059339;28;46402;-94
2022/06/10 06:05:16;;;;;;;;;1.33;1.33;;;;;20.30;55.72;101892.84;5058346;28;45476;-86
2022/06/10 06:07:43;;;;;;;;;2.67;1.67;;;;;20.26;56.37;101890.44;5055030;28;45401;-88
2022/06/10 06:10:12;;;;;;;;;2.00;2.00;;;;;20.40;55.74;101912.91;5048874;28;45561;-88
2022/06/10 06:12:38;;;;;;;;;1.00;1.00;;;;;20.44;55.77;101913.59;5050039;28;45655;-87
2022/06/10 06:15:04;;;;;;;;;3.00;3.00;;;;;20.46;55.87;101908.91;5049768;28;45688;-88
2022/06/10 06:17:29;;;;;;;;;2.00;2.00;;;;;20.49;56.65;101913.28;5047717;28;45464;-88
2022/06/10 06:19:54;;;;;;;;;1.33;1.00;;;;;20.40;56.39;101896.66;5049754;28;45415;-87
2022/06/10 06:22:20;;;;;;;;;1.00;1.00;;;;;20.54;55.71;101921.97;5047262;28;47386;-87
2022/06/10 06:24:45;;;;;;;;;3.00;1.33;;;;;20.51;55.90;101912.22;5046295;28;45320;-87
2022/06/10 06:27:16;;;;;;;;;4.33;2.00;;;;;20.44;56.04;101916.31;5047610;28;45355;-87
2022/06/10 06:29:43;;;;;;;;;68.75;52.25;;;;;20.17;56.71;101909.03;5048239;28;45544;-86
2022/06/10 06:32:08;;;;;;;;;9.33;7.00;;;;;20.18;57.01;101916.19;5048850;28;46287;-87
2022/06/10 06:34:38;;;;;;;;;4.33;4.33;;;;;20.37;56.73;101921.25;5045249;28;47628;-82
2022/06/10 06:37:04;;;;;;;;;5.00;4.00;;;;;20.47;56.42;101928.78;5039965;28;45535;-85
2022/06/10 06:39:29;;;;;;;;;3.33;3.33;;;;;20.49;56.34;101919.56;5053351;28;45470;-85
2022/06/10 06:41:55;;;;;;;;;3.00;3.00;;;;;20.53;55.81;101912.94;5050001;28;46200;-84
2022/06/10 06:44:21;;;;;;;;;3.00;3.00;;;;;20.59;55.86;101920.72;5045865;28;45690;-86
2022/06/10 06:46:46;;;;;;;;;2.67;1.67;;;;;20.52;55.83;101896.81;5046712;28;45608;-86
2022/06/10 06:49:22;;;;;;;;;6.00;6.00;;;;;20.72;56.13;101925.28;5054450;28;45526;-86
2022/06/10 06:51:49;;;;;;;;;3.67;2.67;;;;;20.76;56.45;101918.72;5049378;28;45529;-86
2022/06/10 06:54:15;;;;;;;;;2.00;2.00;;;;;20.82;56.19;101923.72;5053690;28;45775;-86
2022/06/10 06:56:41;;;;;;;;;3.33;2.00;;;;;20.77;55.44;101905.06;5051824;28;45448;-86
2022/06/10 06:59:07;;;;;;;;;4.00;1.00;;;;;20.75;56.02;101901.59;5048318;28;45520;-86
2022/06/10 07:01:33;;;;;;;;;3.33;2.33;;;;;20.95;55.80;101912.88;5038372;28;46377;-87
2022/06/10 07:03:58;;;;;;;;;4.00;1.00;;;;;20.98;55.67;101920.84;5052296;28;45425;-87
2022/06/10 07:06:23;;;;;;;;;2.33;1.00;;;;;20.74;55.33;101880.88;5054188;28;45575;-87
2022/06/10 07:08:50;;;;;;;;;1.33;1.33;;;;;20.79;54.92;101884.16;5052970;28;45462;-86
2022/06/10 07:11:15;;;;;;;;;1.67;1.00;;;;;20.96;55.06;101895.66;5050281;28;46452;-86
2022/06/10 07:13:41;;;;;;;;;2.67;2.67;;;;;21.16;55.08;101911.41;5047058;28;45461;-87
2022/06/10 07:16:07;;;;;;;;;2.33;2.33;;;;;21.23;55.07;101918.13;5054223;28;45456;-83
2022/06/10 07:18:33;;;;;;;;;4.33;3.00;;;;;21.28;54.35;101915.97;5053682;28;45473;-88
2022/06/10 07:21:00;;;;;;;;;2.00;2.00;;;;;21.28;54.42;101917.78;5054182;28;45521;-87
2022/06/10 07:23:27;;;;;;;;;3.00;2.00;;;;;21.29;54.88;101914.13;5049645;28;45517;-89
2022/06/10 07:25:53;;;;;;;;;3.33;1.33;;;;;21.24;55.03;101905.47;5047015;28;45531;-85
2022/06/10 07:28:19;;;;;;;;;4.67;3.00;;;;;21.37;55.21;101922.56;5046253;28;45665;-82
2022/06/10 07:30:45;;;;;;;;;2.00;2.00;;;;;21.23;54.76;101891.00;5042618;28;46339;-81
2022/06/10 07:33:12;;;;;;;;;2.00;1.00;;;;;21.12;54.01;101861.09;5050307;28;45575;-80
2022/06/10 07:35:38;;;;;;;;;2.00;2.00;;;;;21.57;54.72;101923.06;5053412;28;45535;-81
2022/06/10 07:38:04;;;;;;;;;3.00;2.00;;;;;21.64;54.77;101938.78;5054606;28;45551;-88
2022/06/10 07:43:21;;;;;;;;;1.50;1.00;;;;;21.81;53.08;101928.56;5052386;28;45427;-90
2022/06/10 07:45:47;;;;;;;;;2.00;1.67;;;;;21.84;52.83;101915.63;5057860;28;45360;-92
2022/06/10 07:48:14;;;;;;;;;2.67;2.33;;;;;21.79;52.46;101887.94;5057286;28;45516;-90
2022/06/10 07:50:42;;;;;;;;;1.00;1.00;;;;;21.93;52.19;101897.81;5057316;28;46171;-90
2022/06/10 07:53:11;;;;;;;;;4.00;2.33;;;;;22.20;52.61;101935.63;5049833;28;45410;-90
2022/06/10 07:55:38;;;;;;;;;2.00;2.00;;;;;22.30;51.11;101938.56;5048931;28;45458;-92
2022/06/10 07:58:05;;;;;;;;;0.00;0.00;;;;;22.31;51.85;101915.84;5051441;28;45319;-89
2022/06/10 08:00:30;;;;;;;;;2.00;2.00;;;;;22.50;51.88;101920.75;5043180;28;47051;-89
2022/06/10 08:02:57;;;;;;;;;2.67;2.00;;;;;22.59;51.15;101928.22;5050234;28;45367;-90
2022/06/10 08:05:23;;;;;;;;;58.50;45.50;;;;;22.40;50.82;101908.88;5056848;28;45382;-89
2022/06/10 08:07:50;;;;;;;;;7.67;7.67;;;;;22.52;50.38;101925.13;5057190;28;45651;-90
2022/06/10 08:10:24;;;;;;;;;5.00;3.00;;;;;22.69;50.67;101920.25;5057275;28;46388;-85
2022/06/10 08:12:50;;;;;;;;;2.00;2.00;;;;;22.89;50.23;101908.69;5054537;28;45420;-85
2022/06/10 08:15:17;;;;;;;;;2.00;2.00;;;;;23.08;49.93;101908.16;5054610;28;46376;-85
2022/06/10 08:17:42;;;;;;;;;1.33;1.33;;;;;23.07;49.31;101887.41;5048663;28;46054;-85
2022/06/10 08:20:21;;;;;;;;;4.00;1.33;;;;;23.30;48.79;101899.19;5056464;28;46455;-85
2022/06/10 08:22:47;;;;;;;;;3.67;2.00;;;;;23.28;48.44;101882.13;5049864;28;45452;-87
2022/06/10 08:25:13;;;;;;;;;1.00;1.00;;;;;23.49;47.07;101914.06;5057064;28;45889;-85
2022/06/10 08:27:38;;;;;;;;;0.00;0.00;;;;;23.49;46.59;101897.72;5057138;28;45719;-85
2022/06/10 08:30:07;;;;;;;;;0.00;0.00;;;;;23.24;45.58;101847.13;5056243;28;45560;-85
2022/06/10 08:32:33;;;;;;;;;0.00;0.00;;;;;23.76;45.03;101895.53;5056278;28;45465;-87
2022/06/10 08:34:58;;;;;;;;;2.00;0.67;;;;;23.90;44.10;101880.75;5057685;28;45487;-88
2022/06/10 08:37:23;;;;;;;;;0.25;0.00;;;;;24.38;43.21;101895.91;5055516;28;45542;-85
2022/06/10 08:39:49;;;;;;;;;3.00;1.00;;;;;24.62;41.86;101891.13;5052179;28;49058;-85
2022/06/10 08:42:37;;;;;;;;;0.33;0.33;;;;;24.88;41.62;101904.38;5044869;28;45637;-86
2022/06/10 08:45:13;;;;;;;;;0.00;0.00;;;;;24.70;40.99;101886.88;5049118;28;45692;-88
2022/06/10 08:48:05;;;;;;;;;0.00;0.00;;;;;24.83;41.19;101902.06;5047525;28;45455;-88
2022/06/10 08:51:15;;;;;;;;;0.00;0.00;;;;;24.79;42.12;101897.00;5055039;28;46318;-88
2022/06/10 08:54:08;;;;;;;;;1.00;1.00;;;;;24.93;43.16;101893.94;5022419;28;45567;-86
2022/06/10 08:56:36;;;;;;;;;0.00;0.00;;;;;25.08;41.57;101866.34;5030828;28;45751;-87
2022/06/10 08:59:12;;;;;;;;;0.50;0.50;;;;;25.53;41.13;101890.59;5023123;28;45597;-87
2022/06/10 09:01:55;;;;;;;;;2.50;2.50;;;;;25.59;41.64;101901.84;5028640;28;47003;-92
2022/06/10 09:04:33;;;;;;;;;0.75;0.75;;;;;25.62;41.96;101890.63;5026913;28;45411;-91
2022/06/10 09:07:05;;;;;;;;;1.75;1.00;;;;;25.70;41.59;101868.94;5019996;28;45442;-91
2022/06/10 09:09:32;;;;;;;;;0.75;0.75;;;;;26.20;41.46;101895.44;5030834;28;45546;-91
2022/06/10 09:12:24;;;;;;;;;0.25;0.25;;;;;26.42;40.32;101897.03;5028687;28;46236;-91
2022/06/10 09:14:57;;;;;;;;;19.33;17.33;;;;;26.53;39.56;101888.72;4973883;28;45510;-86
2022/06/10 09:18:03;;;;;;;;;12.00;9.00;;;;;27.21;39.41;101876.88;4974423;28;45502;-88
2022/06/10 09:20:38;;;;;;;;;9.33;8.33;;;;;27.77;39.22;101855.91;4974386;28;45484;-89
2022/06/10 09:23:19;;;;;;;;;8.00;5.00;;;;;28.24;38.56;101888.69;4974711;28;46199;-88
2022/06/10 09:25:49;;;;;;;;;4.00;4.00;;;;;28.48;38.30;101863.41;4974996;28;45661;-88
2022/06/10 09:28:15;;;;;;;;;2.50;2.50;;;;;28.75;37.24;101856.06;4982552;28;45837;-87
2022/06/10 09:30:58;;;;;;;;;2.00;2.00;;;;;28.97;37.17;101873.94;4994543;28;45497;-89
2022/06/10 09:33:40;;;;;;;;;4.00;2.00;;;;;29.13;37.38;101884.19;4993675;28;46193;-87
2022/06/10 09:36:11;;;;;;;;;3.00;1.50;;;;;29.43;37.05;101882.81;4989633;28;45433;-88
2022/06/10 09:38:48;;;;;;;;;3.00;3.00;;;;;29.72;36.55;101884.38;4994819;28;45746;-87
2022/06/10 09:41:13;;;;;;;;;2.25;2.25;;;;;30.20;35.87;101899.31;4987506;28;45499;-89
2022/06/10 09:44:02;;;;;;;;;5.00;5.00;;;;;30.37;36.24;101886.47;4993180;28;46088;-87
2022/06/10 09:46:42;;;;;;;;;2.00;2.00;;;;;30.69;34.38;101897.50;4988157;28;45533;-88
2022/06/10 09:49:45;;;;;;;;;4.50;2.75;;;;;30.83;35.34;101893.22;4979674;28;45640;-87
2022/06/10 09:52:22;;;;;;;;;2.00;2.00;;;;;31.03;33.95;101884.66;5023960;28;45412;-88
2022/06/10 09:55:15;;;;;;;;;1.00;1.00;;;;;31.44;33.64;101890.09;5043687;28;46871;-87
2022/06/10 09:57:59;;;;;;;;;3.33;3.33;;;;;32.02;33.29;101890.75;5051522;28;45476;-88
2022/06/10 10:00:33;;;;;;;;;2.00;2.00;;;;;32.54;32.83;101895.59;5052265;28;45485;-90
2022/06/10 10:03:17;;;;;;;;;2.67;2.67;;;;;32.82;31.57;101884.84;5055145;28;45617;-88
2022/06/10 10:05:58;;;;;;;;;3.00;3.00;;;;;33.08;31.17;101892.75;5048737;28;48194;-90
2022/06/10 10:08:23;;;;;;;;;2.00;1.00;;;;;33.30;30.95;101892.88;5046865;28;45477;-88
2022/06/10 10:10:51;;;;;;;;;1.00;0.00;;;;;33.26;28.77;101899.84;5055461;28;45410;-91
2022/06/10 10:13:30;;;;;;;;;0.25;0.25;;;;;33.14;29.33;101897.53;5054928;28;45516;-89
2022/06/10 10:16:11;;;;;;;;;0.75;0.75;;;;;33.09;29.44;101899.16;5050344;28;46546;-86
2022/06/10 10:18:42;;;;;;;;;0.00;0.00;;;;;32.96;29.79;101902.50;5046104;28;45573;-87
2022/06/10 10:21:20;;;;;;;;;0.67;0.00;;;;;32.52;29.52;101886.66;5045632;28;45634;-87
2022/06/10 10:23:52;;;;;;;;;0.75;0.75;;;;;32.26;30.08;101857.47;5049018;28;45689;-89
2022/06/10 10:26:28;;;;;;;;;1.00;1.00;;;;;32.35;29.94;101889.50;5044892;28;47186;-85
2022/06/10 10:29:07;;;;;;;;;0.00;0.00;;;;;32.58;30.13;101891.44;5047662;28;45525;-85
2022/06/10 10:31:41;;;;;;;;;2.00;2.00;;;;;32.47;29.93;101895.44;5052592;28;45257;-85
2022/06/10 10:34:07;;;;;;;;;1.50;0.00;;;;;32.51;29.85;101902.34;5055396;28;45574;-84
2022/06/10 10:36:47;;;;;;;;;0.25;0.25;;;;;32.47;30.50;101889.06;5051775;28;45800;-86
2022/06/10 10:39:35;;;;;;;;;0.75;0.75;;;;;32.47;30.02;101889.91;5052442;28;45393;-87
2022/06/10 10:42:05;;;;;;;;;40.33;33.00;;;;;32.58;30.49;101883.16;5047227;28;45553;-92
2022/06/10 10:44:35;;;;;;;;;2.33;2.33;;;;;32.63;30.61;101880.69;5054238;28;45261;-91
2022/06/10 10:47:10;;;;;;;;;0.00;0.00;;;;;32.73;30.62;101874.91;5052007;28;46341;-91
2022/06/10 10:49:44;;;;;;;;;3.33;2.33;;;;;32.76;30.61;101878.19;5051543;28;45525;-90
2022/06/10 10:52:21;;;;;;;;;1.00;1.00;;;;;32.55;30.44;101887.16;5055999;28;45437;-90
2022/06/10 10:54:52;;;;;;;;;1.67;1.67;;;;;32.23;31.19;101859.75;5052094;28;45552;-90
2022/06/10 10:57:35;;;;;;;;;2.00;2.00;;;;;32.08;31.01;101877.09;5052007;28;45413;-90
2022/06/10 11:00:23;;;;;;;;;2.00;2.00;;;;;31.85;31.73;101899.06;5054530;28;45332;-89
2022/06/10 11:02:55;;;;;;;;;1.00;1.00;;;;;31.46;31.79;101891.63;5054461;28;45608;-89
2022/06/10 11:05:35;;;;;;;;;2.00;0.75;;;;;31.14;31.80;101881.53;5054724;28;45531;-90
2022/06/10 11:08:39;;;;;;;;;2.75;1.00;;;;;31.00;32.49;101876.72;5041317;28;46209;-88
2022/06/10 11:11:14;;;;;;;;;1.25;1.25;;;;;30.97;32.74;101893.59;5049157;28;45509;-89
2022/06/10 11:13:50;;;;;;;;;1.00;1.00;;;;;30.80;34.01;101898.22;5053434;28;45652;-90
2022/06/10 11:16:34;;;;;;;;;2.75;1.50;;;;;30.21;33.34;101835.03;5042941;28;45435;-90
2022/06/10 11:19:25;;;;;;;;;2.75;1.00;;;;;30.31;33.41;101904.53;5037700;28;47151;-89
2022/06/10 11:21:51;;;;;;;;;2.00;2.00;;;;;30.06;34.01;101900.81;5052715;28;45435;-89
2022/06/10 11:24:23;;;;;;;;;1.75;1.75;;;;;29.75;34.55;101887.66;5052350;28;45535;-88
2022/06/10 11:26:54;;;;;;;;;2.00;1.00;;;;;29.53;34.80;101902.81;5051851;28;45472;-90
2022/06/10 11:29:21;;;;;;;;;2.67;1.00;;;;;29.24;34.66;101893.03;5057540;28;45476;-89
2022/06/10 11:31:56;;;;;;;;;1.00;1.00;;;;;28.82;35.73;101848.91;5042508;28;45372;-88
2022/06/10 11:34:30;;;;;;;;;1.00;1.00;;;;;28.89;36.58;101858.22;5046415;28;45399;-89
2022/06/10 11:36:57;;;;;;;;;1.00;1.00;;;;;28.72;36.69;101848.16;5045739;28;45454;-89
2022/06/10 11:39:33;;;;;;;;;2.33;2.33;;;;;28.60;36.02;101864.88;5055176;28;45934;-89
2022/06/10 11:41:58;;;;;;;;;2.00;1.25;;;;;28.75;36.69;101894.47;5056993;28;45524;-89
2022/06/10 11:44:29;;;;;;;;;1.33;1.33;;;;;28.44;36.19;101845.50;5056143;28;45407;-89
2022/06/10 11:47:03;;;;;;;;;2.00;2.00;;;;;28.65;36.44;101885.50;5048209;28;45483;-89
2022/06/10 11:49:44;;;;;;;;;2.00;1.00;;;;;28.58;37.24;101885.25;5055877;28;46398;-89
2022/06/10 11:52:24;;;;;;;;;3.00;2.00;;;;;28.52;37.58;101885.91;5057968;28;45490;-89
2022/06/10 11:54:55;;;;;;;;;0.75;0.75;;;;;28.39;36.38;101880.75;5045433;28;45325;-90
2022/06/10 12:00:38;;;;;;;;;1.33;1.33;;;;;28.15;36.28;101882.22;5049751;28;45746;-88